Time;durP1;ratioP1;P1;durP2;ratioP2;P2;SDS_P1;SDS_P2;PMS_P1;PMS_P2;Temp;Humidity;BMP_temperature;BMP_pressure;BME280_temperature;BME280_humidity;BME280_pressure;Samples;Min_cycle;Max_cycle;Signal;HPM_P1;HPM_P2
2022/09/24 00:00:43;;;;;;;3.78;3.00;;;;;;;14.92;70.15;100072.13;5034121;28;20439;-74
2022/09/24 00:03:08;;;;;;;4.35;3.33;;;;;;;14.95;69.87;100077.06;5042654;28;20384;-75
2022/09/24 00:05:40;;;;;;;3.45;3.15;;;;;;;14.92;70.47;100062.03;5073479;28;20407;-75
2022/09/24 00:08:06;;;;;;;3.17;2.70;;;;;;;14.87;70.25;100067.56;5074186;28;20388;-74
2022/09/24 00:10:42;;;;;;;4.93;3.08;;;;;;;14.80;70.62;100067.03;5074699;28;21128;-75
2022/09/24 00:13:12;;;;;;;5.03;3.03;;;;;;;14.78;70.45;100057.53;5074403;28;20394;-75
2022/09/24 00:15:39;;;;;;;3.55;2.95;;;;;;;14.76;70.70;100059.69;5074585;28;20479;-74
2022/09/24 00:18:06;;;;;;;6.07;3.03;;;;;;;14.76;70.62;100057.78;5067821;28;20392;-74
2022/09/24 00:20:32;;;;;;;4.28;3.08;;;;;;;14.78;70.72;100055.59;5074532;28;20391;-74
2022/09/24 00:22:58;;;;;;;5.23;3.50;;;;;;;14.79;71.00;100059.13;5074364;28;20889;-74
2022/09/24 00:28:07;;;;;;;3.45;3.15;;;;;;;14.79;70.79;100065.41;5074584;28;20381;-74
2022/09/24 00:30:33;;;;;;;4.68;3.05;;;;;;;14.78;70.86;100065.69;5074360;28;20482;-74
2022/09/24 00:32:58;;;;;;;2.83;2.63;;;;;;;14.78;70.97;100062.97;5051841;28;20393;-74
2022/09/24 00:35:24;;;;;;;3.53;2.57;;;;;;;14.74;71.02;100060.00;5058947;28;20389;-75
2022/09/24 00:37:49;;;;;;;3.15;2.30;;;;;;;14.69;71.07;100059.19;5074016;28;20415;-74
2022/09/24 00:40:14;;;;;;;3.40;2.80;;;;;;;14.63;71.42;100050.22;5074133;28;20482;-75
2022/09/24 00:42:40;;;;;;;3.78;2.58;;;;;;;14.58;71.40;100044.00;5072730;28;20399;-75
2022/09/24 00:45:08;;;;;;;3.27;2.50;;;;;;;14.48;71.77;100039.41;5074069;28;20390;-74
2022/09/24 00:47:41;;;;;;;3.38;2.60;;;;;;;14.41;71.81;100047.06;5073378;28;20392;-74
2022/09/24 00:50:20;;;;;;;5.90;2.95;;;;;;;14.38;71.90;100053.09;5073864;28;20388;-75
2022/09/24 00:52:57;;;;;;;9.70;4.47;;;;;;;14.34;71.82;100046.56;5059954;28;20393;-75
2022/09/24 00:55:23;;;;;;;9.73;6.22;;;;;;;14.32;72.16;100049.56;5071184;28;20400;-74
2022/09/24 00:57:53;;;;;;;5.22;3.70;;;;;;;14.30;72.00;100043.53;5073646;28;20443;-74
2022/09/24 01:00:18;;;;;;;4.13;3.10;;;;;;;14.32;72.04;100043.28;5059961;28;20386;-75
2022/09/24 01:02:47;;;;;;;3.30;3.00;;;;;;;14.36;71.91;100047.91;5050905;28;20395;-75
2022/09/24 01:05:13;;;;;;;3.50;2.63;;;;;;;14.32;72.19;100046.81;5073164;28;20387;-75
2022/09/24 01:07:38;;;;;;;6.97;3.92;;;;;;;14.30;71.84;100040.00;5073529;28;20886;-74
2022/09/24 01:10:04;;;;;;;3.40;3.10;;;;;;;14.27;72.19;100038.66;5061490;28;20384;-74
2022/09/24 01:12:57;;;;;;;5.43;3.40;;;;;;;14.23;72.33;100037.56;5073510;28;20565;-74
2022/09/24 01:15:50;;;;;;;5.05;3.67;;;;;;;14.17;72.47;100033.25;5071884;28;20416;-74
2022/09/24 01:18:47;;;;;;;10.88;6.25;;;;;;;14.11;72.62;100033.53;5072003;28;20948;-75
2022/09/24 01:21:34;;;;;;;8.35;5.10;;;;;;;14.00;73.32;100030.84;5017892;28;20396;-74
2022/09/24 01:24:25;;;;;;;7.45;4.57;;;;;;;14.00;73.88;100019.94;5055228;28;20910;-75
2022/09/24 01:27:12;;;;;;;4.45;4.05;;;;;;;14.05;73.86;100027.31;5060914;28;20399;-74
2022/09/24 01:29:42;;;;;;;4.40;3.90;;;;;;;14.08;73.98;100032.19;5073412;28;20395;-74
2022/09/24 01:32:07;;;;;;;5.65;4.60;;;;;;;14.11;74.08;100022.63;5061320;28;20413;-75
2022/09/24 01:34:45;;;;;;;5.43;4.37;;;;;;;14.15;74.15;100015.53;5070232;28;20480;-75
2022/09/24 01:37:15;;;;;;;7.50;4.68;;;;;;;14.14;74.40;100016.63;5072899;28;20494;-75
2022/09/24 01:39:42;;;;;;;4.80;4.03;;;;;;;14.15;74.00;100015.53;5072984;28;20437;-74
2022/09/24 01:42:09;;;;;;;5.63;4.60;;;;;;;14.10;74.29;100002.75;5072886;28;20383;-74
2022/09/24 01:44:36;;;;;;;6.25;5.65;;;;;;;14.06;74.22;100004.41;5040540;28;20383;-74
2022/09/24 01:47:05;;;;;;;6.15;5.53;;;;;;;14.06;74.49;100003.59;5069281;28;20397;-74
2022/09/24 01:49:31;;;;;;;7.05;5.20;;;;;;;14.07;74.33;99999.75;5064104;28;20387;-74
2022/09/24 01:52:00;;;;;;;5.40;4.95;;;;;;;14.18;74.11;100002.19;5072732;28;20391;-74
2022/09/24 01:54:34;;;;;;;7.13;5.05;;;;;;;14.22;73.87;100003.25;5072253;28;20388;-75
2022/09/24 01:57:02;;;;;;;5.60;5.10;;;;;;;14.20;73.79;99991.81;5072590;28;20883;-74
2022/09/24 01:59:35;;;;;;;6.78;5.13;;;;;;;14.22;73.96;99991.53;5068855;28;20400;-74
2022/09/24 02:02:26;;;;;;;9.20;4.90;;;;;;;14.23;74.19;99993.16;5069242;28;20516;-74
2022/09/24 02:04:58;;;;;;;9.00;5.50;;;;;;;14.22;73.90;99988.81;5072533;28;20867;-74
2022/09/24 02:07:49;;;;;;;5.67;5.13;;;;;;;14.24;74.13;99992.88;5072506;28;20395;-75
2022/09/24 02:10:16;;;;;;;7.63;5.45;;;;;;;14.24;74.34;99995.59;5069057;28;20407;-74
2022/09/24 02:12:45;;;;;;;8.27;5.45;;;;;;;14.25;74.41;99988.25;5060594;28;20589;-74
2022/09/24 02:15:16;;;;;;;8.13;5.57;;;;;;;14.23;74.61;99985.78;5072180;28;20407;-74
2022/09/24 02:17:46;;;;;;;5.40;4.90;;;;;;;14.25;74.73;99985.53;5048443;28;20419;-74
2022/09/24 02:20:15;;;;;;;5.80;4.90;;;;;;;14.25;74.81;99989.06;5072303;28;20392;-75
2022/09/24 02:22:42;;;;;;;8.02;5.15;;;;;;;14.25;75.02;99985.53;5072195;28;20383;-74
2022/09/24 02:25:11;;;;;;;7.85;5.47;;;;;;;14.24;74.47;99981.97;5072151;28;20384;-74
2022/09/24 02:27:37;;;;;;;6.93;5.47;;;;;;;14.23;74.70;99988.50;5053574;28;20400;-74
2022/09/24 02:30:04;;;;;;;7.07;5.33;;;;;;;14.24;74.75;99981.16;5071989;28;20450;-74
2022/09/24 02:32:32;;;;;;;5.15;4.72;;;;;;;14.24;74.65;99984.69;5066351;28;20407;-75
2022/09/24 02:35:02;;;;;;;5.78;5.15;;;;;;;14.25;74.68;99980.91;5068716;28;20395;-74
2022/09/24 02:37:28;;;;;;;9.25;5.22;;;;;;;14.24;74.78;99984.69;5071302;28;20419;-75
2022/09/24 02:39:53;;;;;;;9.00;4.90;;;;;;;14.24;74.45;99990.16;5071882;28;20899;-74
2022/09/24 02:42:20;;;;;;;3.95;3.10;;;;;;;14.22;74.44;99991.53;5070433;28;20487;-75
2022/09/24 02:44:46;;;;;;;4.80;3.28;;;;;;;14.15;74.11;99986.38;5071796;28;20801;-74
2022/09/24 02:47:12;;;;;;;6.93;3.30;;;;;;;14.09;73.63;99984.78;5071171;28;20456;-75
2022/09/24 02:49:37;;;;;;;5.20;3.63;;;;;;;14.04;73.78;99990.25;5070599;28;20486;-74
2022/09/24 02:52:03;;;;;;;4.73;3.47;;;;;;;13.97;73.89;99995.16;5056359;28;20743;-74
2022/09/24 02:54:28;;;;;;;3.00;2.90;;;;;;;13.94;74.37;99980.19;5071612;28;20825;-74
2022/09/24 02:56:54;;;;;;;4.20;3.80;;;;;;;13.97;74.14;99976.09;5071400;28;20404;-75
2022/09/24 02:59:19;;;;;;;4.97;4.40;;;;;;;13.99;73.83;99984.81;5069806;28;20391;-74
2022/09/24 03:01:45;;;;;;;4.93;3.90;;;;;;;14.02;73.63;99982.38;5066862;28;20402;-75
2022/09/24 03:04:11;;;;;;;3.83;3.50;;;;;;;14.04;73.66;99982.06;5062568;28;20473;-75
2022/09/24 03:06:36;;;;;;;6.80;3.83;;;;;;;14.00;73.44;99981.00;5071353;28;20391;-74
2022/09/24 03:09:03;;;;;;;5.03;3.43;;;;;;;13.98;73.57;99980.47;5044312;28;20402;-75
2022/09/24 03:11:30;;;;;;;4.10;3.80;;;;;;;13.95;74.11;99987.28;5071245;28;20862;-74
2022/09/24 03:13:55;;;;;;;7.72;4.72;;;;;;;13.90;74.56;99984.56;5071082;28;20423;-74
2022/09/24 03:16:21;;;;;;;6.83;4.30;;;;;;;13.87;74.56;99984.31;5071088;28;20415;-75
2022/09/24 03:18:46;;;;;;;8.13;4.60;;;;;;;13.92;74.73;99973.41;5070690;28;20392;-74
2022/09/24 03:21:14;;;;;;;6.63;4.07;;;;;;;13.94;74.47;99971.22;5071289;28;20479;-74
2022/09/24 03:23:40;;;;;;;5.95;4.38;;;;;;;13.96;74.36;99971.75;5071029;28;20446;-74
2022/09/24 03:26:06;;;;;;;5.82;3.95;;;;;;;13.93;74.76;99973.13;5067036;28;20474;-75
2022/09/24 03:28:31;;;;;;;5.03;3.97;;;;;;;13.86;74.73;99969.88;5070605;28;20474;-75
2022/09/24 03:30:59;;;;;;;4.60;4.23;;;;;;;13.87;74.88;99974.22;5069001;28;20742;-75
2022/09/24 03:33:45;;;;;;;5.43;4.72;;;;;;;13.83;75.04;99975.09;5059608;28;20388;-74
2022/09/24 03:36:16;;;;;;;7.20;5.07;;;;;;;13.84;74.87;99980.25;5052982;28;20478;-74
2022/09/24 03:38:44;;;;;;;5.22;4.72;;;;;;;13.89;75.10;99972.06;5070130;28;20774;-75
2022/09/24 03:41:10;;;;;;;5.70;4.47;;;;;;;13.91;74.82;99978.03;5070709;28;20415;-74
2022/09/24 03:43:36;;;;;;;5.40;4.85;;;;;;;13.92;75.03;99981.59;5061584;28;20391;-75
2022/09/24 03:46:05;;;;;;;10.52;7.05;;;;;;;13.92;74.62;99985.13;5070966;28;20782;-75
2022/09/24 03:48:30;;;;;;;9.15;5.88;;;;;;;13.93;74.98;99978.56;5070504;28;20418;-74
2022/09/24 03:50:56;;;;;;;9.13;5.80;;;;;;;13.89;74.87;99971.25;5070957;28;20858;-74
2022/09/24 03:53:22;;;;;;;9.17;5.87;;;;;;;13.90;74.85;99970.94;5070855;28;20526;-75
2022/09/24 03:55:53;;;;;;;9.00;6.63;;;;;;;13.89;74.91;99963.91;5070832;28;20396;-75
2022/09/24 03:58:18;;;;;;;6.82;5.28;;;;;;;13.87;74.66;99963.34;5050262;28;20403;-74
2022/09/24 04:00:44;;;;;;;5.97;5.30;;;;;;;13.86;74.61;99974.53;5056386;28;20736;-74
2022/09/24 04:03:09;;;;;;;10.53;4.90;;;;;;;13.85;74.88;99965.53;5061874;28;20416;-74
2022/09/24 04:05:35;;;;;;;5.05;4.25;;;;;;;13.81;74.71;99966.34;5069537;28;20395;-74
2022/09/24 04:08:01;;;;;;;5.03;4.23;;;;;;;13.75;74.78;99964.75;5070143;28;20395;-74
2022/09/24 04:10:27;;;;;;;4.27;3.93;;;;;;;13.70;75.11;99965.56;5070759;28;20440;-75
2022/09/24 04:12:52;;;;;;;4.45;4.00;;;;;;;13.69;74.86;99957.69;5070829;28;20486;-74
2022/09/24 04:15:18;;;;;;;5.73;4.27;;;;;;;13.67;75.07;99960.69;5068004;28;20549;-74
2022/09/24 04:17:54;;;;;;;5.65;4.30;;;;;;;13.65;74.75;99954.72;5058241;28;20409;-74
2022/09/24 04:20:21;;;;;;;7.72;4.15;;;;;;;13.66;75.07;99955.53;5070603;28;20453;-74
2022/09/24 04:22:52;;;;;;;5.43;4.87;;;;;;;13.68;75.23;99951.44;5070810;28;20420;-74
2022/09/24 04:25:19;;;;;;;6.60;4.75;;;;;;;13.70;75.11;99949.22;5070708;28;20388;-74
2022/09/24 04:27:44;;;;;;;6.38;5.32;;;;;;;13.70;74.63;99949.22;5070101;28;20798;-75
2022/09/24 04:30:13;;;;;;;6.15;5.10;;;;;;;13.70;74.93;99948.44;5070902;28;20388;-75
2022/09/24 04:32:40;;;;;;;7.78;5.40;;;;;;;13.70;74.91;99951.97;5061903;28;20395;-75
2022/09/24 04:35:06;;;;;;;5.65;4.90;;;;;;;13.68;75.27;99954.16;5042236;28;20751;-75
2022/09/24 04:37:31;;;;;;;5.60;5.00;;;;;;;13.66;75.05;99945.47;5069864;28;20407;-75
2022/09/24 04:39:56;;;;;;;6.93;4.90;;;;;;;13.67;75.49;99944.34;5052476;28;20426;-74
2022/09/24 04:42:22;;;;;;;4.50;4.13;;;;;;;13.67;75.19;99946.25;5070343;28;20399;-74
2022/09/24 04:44:47;;;;;;;6.13;4.70;;;;;;;13.67;75.24;99944.34;5070450;28;20406;-74
2022/09/24 04:47:13;;;;;;;5.83;4.13;;;;;;;13.69;74.93;99952.25;5070306;28;20384;-74
2022/09/24 04:49:40;;;;;;;6.13;4.33;;;;;;;13.70;74.93;99957.41;5047482;28;20393;-75
2022/09/24 04:52:05;;;;;;;5.07;4.47;;;;;;;13.68;74.95;99958.78;5059378;28;20402;-75
2022/09/24 04:54:30;;;;;;;6.13;4.53;;;;;;;13.70;75.01;99962.06;5073856;28;20380;-75
2022/09/24 04:56:55;;;;;;;5.03;4.63;;;;;;;13.73;74.91;99962.28;5073277;28;20407;-75
2022/09/24 04:59:22;;;;;;;4.67;4.03;;;;;;;13.73;75.37;99956.06;5073701;28;20869;-74
2022/09/24 05:01:47;;;;;;;5.93;4.50;;;;;;;13.73;75.06;99956.06;5066812;28;20529;-74
2022/09/24 05:04:12;;;;;;;4.32;3.95;;;;;;;13.67;75.37;99959.84;5045886;28;20468;-74
2022/09/24 05:06:38;;;;;;;4.93;4.27;;;;;;;13.65;75.20;99957.44;5061328;28;20866;-74
2022/09/24 05:09:03;;;;;;;4.50;4.10;;;;;;;13.69;75.01;99955.78;5071826;28;20477;-74
2022/09/24 05:11:28;;;;;;;4.80;4.33;;;;;;;13.68;74.90;99953.34;5073491;28;20876;-74
2022/09/24 05:13:54;;;;;;;7.23;4.17;;;;;;;13.66;74.81;99952.81;5073425;28;20870;-75
2022/09/24 05:16:19;;;;;;;10.32;4.68;;;;;;;13.61;75.34;99955.53;5073390;28;20408;-74
2022/09/24 05:18:44;;;;;;;6.23;3.90;;;;;;;13.59;75.03;99950.38;5072841;28;20514;-75
2022/09/24 05:21:09;;;;;;;5.87;5.30;;;;;;;13.57;75.43;99944.38;5073348;28;20738;-75
2022/09/24 05:23:35;;;;;;;4.38;4.03;;;;;;;13.56;75.33;99948.22;5065762;28;20470;-74
2022/09/24 05:28:44;;;;;;;5.50;4.50;;;;;;;13.55;75.52;99957.47;5072767;28;20442;-74
2022/09/24 05:31:09;;;;;;;4.77;4.30;;;;;;;13.57;75.39;99957.97;5073033;28;20388;-74
2022/09/24 05:33:35;;;;;;;4.35;3.95;;;;;;;13.57;75.60;99963.44;5065219;28;20387;-75
2022/09/24 05:36:01;;;;;;;5.05;3.72;;;;;;;13.56;75.59;99952.84;5072940;28;20553;-75
2022/09/24 05:38:26;;;;;;;4.60;4.17;;;;;;;13.58;75.39;99964.25;5066988;28;20397;-75
2022/09/24 05:40:51;;;;;;;5.00;3.93;;;;;;;13.59;75.59;99966.72;5056923;28;20548;-75
2022/09/24 05:43:20;;;;;;;7.43;4.20;;;;;;;13.58;75.62;99965.06;5045223;28;20389;-74
2022/09/24 05:45:48;;;;;;;4.53;3.72;;;;;;;13.60;75.49;99953.91;5066071;28;20406;-74
2022/09/24 05:48:15;;;;;;;7.40;4.00;;;;;;;13.62;75.11;99966.16;5044360;28;20404;-75
2022/09/24 05:50:41;;;;;;;5.38;3.90;;;;;;;13.60;74.91;99965.59;5052709;28;20392;-75
2022/09/24 05:53:08;;;;;;;4.50;4.03;;;;;;;13.61;75.27;99969.97;5048215;28;20402;-75
2022/09/24 05:55:33;;;;;;;4.00;3.60;;;;;;;13.61;74.90;99969.97;5061627;28;20416;-76
2022/09/24 05:58:06;;;;;;;5.88;4.00;;;;;;;13.61;74.97;99964.50;5049063;28;20826;-74
2022/09/24 06:00:32;;;;;;;6.75;4.07;;;;;;;13.61;74.93;99963.69;5048657;28;20961;-75
2022/09/24 06:03:06;;;;;;;4.30;3.80;;;;;;;13.64;74.73;99971.31;5072017;28;20474;-76
2022/09/24 06:05:33;;;;;;;5.75;4.00;;;;;;;13.61;75.01;99975.41;5060422;28;20480;-75
2022/09/24 06:07:59;;;;;;;7.57;3.88;;;;;;;13.61;74.52;99969.97;5071974;28;20392;-75
2022/09/24 06:10:25;;;;;;;7.43;4.43;;;;;;;13.65;75.00;99972.94;5049350;28;20911;-74
2022/09/24 06:12:51;;;;;;;6.15;3.80;;;;;;;13.67;74.67;99990.63;5053580;28;20966;-75
2022/09/24 06:15:17;;;;;;;4.57;4.18;;;;;;;13.69;74.65;99979.47;5046232;28;20414;-75
2022/09/24 06:17:43;;;;;;;6.07;4.38;;;;;;;13.71;74.64;99982.72;5067319;28;20407;-75
2022/09/24 06:20:08;;;;;;;10.13;4.50;;;;;;;13.61;74.80;99982.75;5072243;28;20759;-75
2022/09/24 06:22:33;;;;;;;6.60;4.67;;;;;;;13.64;75.05;99984.91;5067653;28;20442;-75
2022/09/24 06:24:59;;;;;;;5.57;4.57;;;;;;;13.70;74.95;99986.56;5057357;28;20406;-76
2022/09/24 06:27:24;;;;;;;5.33;4.30;;;;;;;13.72;75.06;99976.19;5040008;28;20753;-75
2022/09/24 06:29:49;;;;;;;8.47;4.97;;;;;;;13.73;75.30;99975.13;5066054;28;20413;-75
2022/09/24 06:32:14;;;;;;;7.43;4.40;;;;;;;13.72;75.37;99974.28;5056321;28;20430;-75
2022/09/24 06:34:40;;;;;;;6.50;4.83;;;;;;;13.69;75.42;99984.94;5063440;28;20813;-75
2022/09/24 06:37:05;;;;;;;9.10;4.83;;;;;;;13.74;75.43;99991.16;5032454;28;20414;-76
2022/09/24 06:39:30;;;;;;;5.17;4.73;;;;;;;13.82;75.46;99992.50;5037953;28;20406;-75
2022/09/24 06:41:57;;;;;;;6.20;5.17;;;;;;;13.86;75.40;99991.66;5059214;28;20738;-73
2022/09/24 06:44:22;;;;;;;5.38;4.88;;;;;;;13.88;75.55;99994.13;5050350;28;20471;-73
2022/09/24 06:46:48;;;;;;;6.75;5.32;;;;;;;13.91;75.79;99983.47;5056108;28;20457;-74
2022/09/24 06:49:13;;;;;;;7.77;6.07;;;;;;;13.95;75.54;99986.47;5057552;28;20397;-74
2022/09/24 06:51:38;;;;;;;6.87;6.17;;;;;;;14.00;75.46;99976.34;5047126;28;20405;-73
2022/09/24 06:54:04;;;;;;;7.72;5.40;;;;;;;14.06;75.48;99968.19;5050320;28;20464;-73
2022/09/24 06:56:30;;;;;;;7.82;5.63;;;;;;;14.08;75.45;99979.59;5051977;28;20776;-73
2022/09/24 06:58:55;;;;;;;11.50;5.63;;;;;;;14.10;75.50;99994.56;5059114;28;20400;-73
2022/09/24 07:01:20;;;;;;;5.15;4.65;;;;;;;14.11;75.90;99998.94;5062886;28;20396;-72
2022/09/24 07:03:46;;;;;;;7.23;4.87;;;;;;;14.10;76.06;99996.47;5043206;28;20401;-72
2022/09/24 07:06:11;;;;;;;7.33;4.57;;;;;;;14.12;76.13;99997.03;5049069;28;20409;-73
2022/09/24 07:08:36;;;;;;;8.50;5.10;;;;;;;14.12;76.40;99994.31;5068564;28;20450;-72
2022/09/24 07:11:01;;;;;;;5.97;5.23;;;;;;;14.16;76.28;99998.91;5046791;28;20416;-74
2022/09/24 07:13:27;;;;;;;7.30;5.70;;;;;;;14.19;76.16;99992.09;5053496;28;20419;-73
2022/09/24 07:15:52;;;;;;;5.93;5.13;;;;;;;14.20;76.19;99990.97;5070820;28;20716;-73
2022/09/24 07:18:19;;;;;;;6.20;5.53;;;;;;;14.20;76.49;99991.81;5050038;28;20398;-73
2022/09/24 07:20:49;;;;;;;7.38;6.20;;;;;;;14.25;76.20;99993.69;5038453;28;20430;-74
2022/09/24 07:23:15;;;;;;;15.85;14.18;;;;;;;14.30;75.98;99991.75;5042714;28;20493;-73
2022/09/24 07:25:40;;;;;;;9.50;8.57;;;;;;;14.31;76.18;100004.28;5061164;28;20423;-73
2022/09/24 07:28:08;;;;;;;7.67;6.13;;;;;;;14.32;76.38;100016.84;5038978;28;20402;-73
2022/09/24 07:30:35;;;;;;;7.90;6.10;;;;;;;14.33;76.41;100010.31;5068710;28;20380;-73
2022/09/24 07:33:00;;;;;;;8.85;5.70;;;;;;;14.33;76.22;100023.09;5051281;28;20438;-73
2022/09/24 07:35:27;;;;;;;8.90;5.47;;;;;;;14.31;75.89;100028.81;5038535;28;20827;-73
2022/09/24 07:37:57;;;;;;;8.77;5.55;;;;;;;14.26;76.51;100026.09;5067926;28;20917;-73
2022/09/24 07:40:23;;;;;;;6.47;5.77;;;;;;;14.26;76.58;100030.78;5039265;28;20405;-73
2022/09/24 07:42:48;;;;;;;7.65;6.43;;;;;;;14.31;76.72;100028.00;5057167;28;20395;-73
2022/09/24 07:45:16;;;;;;;8.43;5.83;;;;;;;14.35;76.54;100027.22;5052268;28;20449;-73
2022/09/24 07:47:41;;;;;;;8.38;5.63;;;;;;;14.47;76.30;100022.22;5043540;28;20480;-73
2022/09/24 07:50:07;;;;;;;6.47;5.80;;;;;;;14.51;75.80;100015.13;5067965;28;20467;-73
2022/09/24 07:52:32;;;;;;;6.90;6.22;;;;;;;14.53;75.76;100025.75;5052064;28;20408;-74
2022/09/24 07:54:57;;;;;;;8.13;6.00;;;;;;;14.55;75.91;100015.38;5048879;28;20402;-74
2022/09/24 07:57:22;;;;;;;8.33;7.13;;;;;;;14.57;75.77;100021.34;5039389;28;20421;-75
2022/09/24 07:59:50;;;;;;;27.92;15.75;;;;;;;14.63;76.12;100011.22;5061142;28;20384;-74
2022/09/24 08:02:16;;;;;;;17.20;11.50;;;;;;;14.66;76.21;100011.47;5054372;28;20411;-75
2022/09/24 08:04:43;;;;;;;9.20;7.57;;;;;;;14.71;75.88;100006.00;5056964;28;20396;-75
2022/09/24 08:07:10;;;;;;;8.93;7.38;;;;;;;14.78;75.53;100017.41;5070767;28;20376;-74
2022/09/24 08:09:35;;;;;;;16.13;9.88;;;;;;;14.85;75.38;100009.72;5050018;28;20417;-74
2022/09/24 08:12:00;;;;;;;8.57;6.90;;;;;;;14.93;75.06;100016.47;5069518;28;20388;-74
2022/09/24 08:14:26;;;;;;;8.80;6.80;;;;;;;14.97;74.84;100015.63;5059396;28;20425;-74
2022/09/24 08:16:51;;;;;;;8.63;6.63;;;;;;;15.08;74.67;100017.19;5070460;28;20423;-74
2022/09/24 08:19:16;;;;;;;7.60;6.77;;;;;;;15.21;74.13;100023.09;5067642;28;20952;-74
2022/09/24 08:21:42;;;;;;;8.37;6.43;;;;;;;15.28;74.00;100021.66;5070061;28;20422;-74
2022/09/24 08:24:07;;;;;;;7.60;6.75;;;;;;;15.31;74.03;100021.06;5061853;28;20414;-74
2022/09/24 08:26:32;;;;;;;9.67;7.47;;;;;;;15.31;73.88;100021.06;5060057;28;20395;-73
2022/09/24 08:28:57;;;;;;;9.23;6.90;;;;;;;15.32;73.98;100030.91;5051910;28;20462;-74
2022/09/24 08:31:23;;;;;;;12.90;8.10;;;;;;;15.31;73.95;100032.00;5052731;28;20448;-73
2022/09/24 08:33:49;;;;;;;9.53;7.67;;;;;;;15.21;73.54;100029.38;5057823;28;20751;-73
2022/09/24 08:36:15;;;;;;;10.20;8.33;;;;;;;15.23;73.86;100029.91;5048862;28;20499;-73
2022/09/24 08:38:40;;;;;;;10.10;7.83;;;;;;;15.27;73.47;100022.78;5053138;28;20405;-73
2022/09/24 08:41:26;;;;;;;10.70;7.20;;;;;;;15.28;73.21;100031.78;5042478;28;20920;-73
2022/09/24 08:44:02;;;;;;;9.87;7.37;;;;;;;15.36;73.13;100031.16;5053675;28;20932;-73
2022/09/24 08:49:26;;;;;;;8.65;7.05;;;;;;;15.62;72.35;100031.75;5048405;28;20881;-73
2022/09/24 08:52:27;;;;;;;9.55;7.63;;;;;;;15.74;72.02;100035.72;5057741;28;20496;-72
2022/09/24 08:54:57;;;;;;;12.50;7.85;;;;;;;15.63;72.00;100033.38;5050938;28;20895;-73
2022/09/24 08:57:25;;;;;;;13.07;8.27;;;;;;;15.58;72.41;100036.97;5057581;28;20472;-73
2022/09/24 08:59:51;;;;;;;12.95;7.80;;;;;;;15.51;72.66;100042.78;5065919;28;20400;-73
2022/09/24 09:02:33;;;;;;;9.90;7.30;;;;;;;15.54;72.44;100036.72;5042607;28;20443;-74
2022/09/24 09:05:32;;;;;;;11.80;7.85;;;;;;;15.61;72.90;100039.13;5050381;28;20401;-73
2022/09/24 09:08:03;;;;;;;10.77;7.20;;;;;;;15.79;72.41;100034.84;5068667;28;20496;-74
2022/09/24 09:10:34;;;;;;;9.27;7.45;;;;;;;15.99;71.85;100037.38;5069745;28;20398;-74
2022/09/24 09:13:10;;;;;;;9.52;6.93;;;;;;;16.17;71.47;100030.34;5058732;28;20425;-74
2022/09/24 09:15:42;;;;;;;8.40;6.88;;;;;;;16.28;70.87;100029.09;5037309;28;20405;-75
2022/09/24 09:18:24;;;;;;;7.78;7.05;;;;;;;16.41;70.68;100039.31;5047991;28;20884;-74
2022/09/24 09:20:49;;;;;;;11.73;7.00;;;;;;;16.51;70.45;100036.44;5047003;28;20917;-73
2022/09/24 09:23:21;;;;;;;7.00;6.30;;;;;;;16.55;70.31;100043.00;5032226;28;20504;-72
2022/09/24 09:25:54;;;;;;;8.18;5.95;;;;;;;16.60;69.38;100043.75;5042210;28;20459;-74
2022/09/24 09:28:20;;;;;;;8.98;6.53;;;;;;;16.52;69.74;100049.03;5040270;28;20890;-72
2022/09/24 09:31:05;;;;;;;6.53;5.85;;;;;;;16.47;69.98;100046.34;5046261;28;20404;-73
2022/09/24 09:33:49;;;;;;;8.43;6.93;;;;;;;16.49;69.95;100044.16;5045580;28;20428;-75
2022/09/24 09:36:45;;;;;;;8.13;6.30;;;;;;;16.45;70.44;100040.38;5057295;28;20413;-72
2022/09/24 09:42:35;;;;;;;7.50;6.45;;;;;;;16.39;70.68;100044.28;5067976;28;20523;-73
2022/09/24 09:45:34;;;;;;;8.38;6.75;;;;;;;16.36;70.84;100042.13;5050099;28;20484;-73
2022/09/24 09:48:02;;;;;;;8.60;6.37;;;;;;;16.28;71.40;100040.03;5067390;28;20419;-73
2022/09/24 09:51:06;;;;;;;7.47;6.68;;;;;;;16.22;71.74;100041.22;5054365;28;20825;-73
2022/09/24 09:53:32;;;;;;;10.82;6.75;;;;;;;16.16;72.25;100039.66;5046455;28;20402;-73
2022/09/24 09:56:00;;;;;;;9.70;7.10;;;;;;;16.18;72.37;100040.97;5059395;28;20409;-73
2022/09/24 09:58:27;;;;;;;10.60;6.18;;;;;;;16.20;72.51;100037.97;5042800;28;20388;-73
2022/09/24 10:01:09;;;;;;;9.25;6.88;;;;;;;16.22;72.68;100035.75;5039004;28;20897;-74
2022/09/24 10:03:45;;;;;;;8.20;6.55;;;;;;;16.26;72.96;100037.59;5045146;28;20400;-73
2022/09/24 10:06:12;;;;;;;11.10;7.72;;;;;;;16.26;73.69;100034.88;5040006;28;20472;-73
2022/09/24 10:08:39;;;;;;;7.63;6.72;;;;;;;16.35;73.33;100033.09;5059378;28;20516;-73
2022/09/24 10:11:06;;;;;;;11.40;8.15;;;;;;;16.60;72.76;100023.78;5046512;28;20410;-72
2022/09/24 10:13:32;;;;;;;9.27;6.93;;;;;;;16.77;72.13;100032.28;5044086;28;20977;-73
2022/09/24 10:16:00;;;;;;;7.43;6.53;;;;;;;16.84;72.36;100035.47;5063990;28;20403;-73
2022/09/24 10:18:33;;;;;;;7.67;6.50;;;;;;;16.92;72.68;100034.81;5072082;28;20437;-73
2022/09/24 10:21:02;;;;;;;8.85;6.63;;;;;;;16.98;72.79;100036.34;5058597;28;20771;-72
2022/09/24 10:23:33;;;;;;;8.07;6.50;;;;;;;16.98;72.33;100036.34;5065047;28;20396;-73
2022/09/24 10:26:00;;;;;;;7.40;6.60;;;;;;;16.93;72.35;100035.59;5062709;28;20898;-73
2022/09/24 10:31:16;;;;;;;7.40;6.55;;;;;;;16.86;72.46;100029.72;5069705;28;20422;-72
2022/09/24 10:33:45;;;;;;;11.07;6.75;;;;;;;16.88;72.53;100032.97;5054963;28;20388;-72
2022/09/24 10:36:19;;;;;;;7.53;6.72;;;;;;;16.96;72.24;100035.81;5066180;28;20462;-73
2022/09/24 10:38:44;;;;;;;9.15;6.80;;;;;;;17.07;72.16;100026.34;5046441;28;20879;-73
2022/09/24 10:41:26;;;;;;;8.02;6.75;;;;;;;17.18;72.13;100034.41;5049361;28;20488;-73
2022/09/24 10:43:53;;;;;;;7.68;6.97;;;;;;;17.22;71.85;100024.50;5046494;28;20894;-73
2022/09/24 10:46:33;;;;;;;8.02;6.70;;;;;;;17.25;71.73;100026.63;5034428;28;20506;-73
2022/09/24 10:49:17;;;;;;;9.00;7.50;;;;;;;17.30;71.60;100021.06;5039296;28;20399;-74
2022/09/24 10:52:09;;;;;;;11.77;9.32;;;;;;;17.40;71.64;100027.19;5041965;28;20523;-73
2022/09/24 10:55:08;;;;;;;8.90;7.25;;;;;;;17.43;71.22;100023.84;5058051;28;20414;-73
2022/09/24 10:57:49;;;;;;;8.57;6.93;;;;;;;17.35;71.80;100020.97;5060208;28;20889;-73
2022/09/24 11:00:22;;;;;;;9.68;7.00;;;;;;;17.23;72.04;100006.94;5054186;28;20434;-74
2022/09/24 11:03:25;;;;;;;8.52;6.78;;;;;;;17.17;72.67;100008.94;5067332;28;20397;-73
2022/09/24 11:05:54;;;;;;;7.30;6.60;;;;;;;17.11;73.49;100016.44;5050089;28;20422;-73
2022/09/24 11:08:48;;;;;;;9.90;6.10;;;;;;;17.10;73.97;100014.81;5050877;28;20418;-73
2022/09/24 11:11:23;;;;;;;8.48;6.70;;;;;;;17.19;74.62;100016.88;5054677;28;20396;-73
2022/09/24 11:13:58;;;;;;;8.35;7.30;;;;;;;17.23;74.37;100013.22;5071049;28;20443;-73
2022/09/24 11:16:37;;;;;;;8.35;6.20;;;;;;;17.38;73.91;100017.63;5071357;28;20427;-73
2022/09/24 11:19:23;;;;;;;7.07;6.38;;;;;;;17.57;73.21;100018.41;5046524;28;21354;-73
2022/09/24 11:22:12;;;;;;;9.40;6.65;;;;;;;17.69;73.67;100005.03;5050557;28;20411;-73
2022/09/24 11:25:16;;;;;;;9.40;6.50;;;;;;;17.71;74.19;100011.03;5048207;28;20407;-74
2022/09/24 11:28:06;;;;;;;7.03;6.40;;;;;;;17.69;74.37;100001.47;5049787;28;20457;-74
2022/09/24 11:30:34;;;;;;;8.93;6.13;;;;;;;17.69;74.55;99991.34;5065534;28;20384;-75
2022/09/24 11:33:15;;;;;;;7.53;6.20;;;;;;;17.82;74.58;100001.50;5055344;28;20471;-74
2022/09/24 11:36:06;;;;;;;6.57;5.97;;;;;;;17.82;74.67;99987.78;5048329;28;20409;-73
2022/09/24 11:39:12;;;;;;;7.13;6.50;;;;;;;17.92;74.78;99992.25;5039924;28;20492;-73
2022/09/24 11:41:58;;;;;;;9.45;5.53;;;;;;;18.13;74.38;99980.59;5054674;28;20401;-74
2022/09/24 11:44:35;;;;;;;6.80;6.20;;;;;;;18.34;74.21;99985.66;5068768;28;20441;-74
2022/09/24 11:47:38;;;;;;;6.65;6.03;;;;;;;18.47;73.42;99993.84;5049006;28;20547;-74
2022/09/24 11:50:36;;;;;;;6.75;5.75;;;;;;;18.62;72.62;99984.47;5065584;28;20885;-74
2022/09/24 11:53:07;;;;;;;6.17;5.47;;;;;;;18.78;72.53;99973.94;5055800;28;20414;-74
2022/09/24 11:55:45;;;;;;;7.07;4.88;;;;;;;19.54;71.44;99975.63;5058949;28;20482;-73
2022/09/24 11:58:15;;;;;;;5.27;4.80;;;;;;;20.95;67.19;99979.69;5050335;28;20426;-74